Time;durP1;ratioP1;P1;durP2;ratioP2;P2;SDS_P1;SDS_P2;PMS_P1;PMS_P2;Temp;Humidity;BMP_temperature;BMP_pressure;BME280_temperature;BME280_humidity;BME280_pressure;Samples;Min_cycle;Max_cycle;Signal;HPM_P1;HPM_P2
2022/10/23 00:02:06;;;;;;;5.70;4.45;;;;;;;3.37;97.50;100391.66;4965752;27;20040;-63
2022/10/23 00:04:46;;;;;;;10.80;4.55;;;;;;;3.42;96.77;100387.41;5010134;27;20110;-62
2022/10/23 00:07:27;;;;;;;7.18;4.20;;;;;;;3.33;95.51;100382.09;4970329;27;20098;-63
2022/10/23 00:10:26;;;;;;;7.28;3.67;;;;;;;3.39;95.44;100389.94;4944427;27;20036;-61
2022/10/23 00:13:16;;;;;;;4.88;3.50;;;;;;;3.44;94.96;100390.91;4928993;27;20047;-62
2022/10/23 00:15:50;;;;;;;8.65;3.85;;;;;;;3.46;95.22;100384.00;4986107;27;20043;-61
2022/10/23 00:18:28;;;;;;;11.18;3.88;;;;;;;3.59;94.99;100389.34;4970431;27;20050;-62
2022/10/23 00:21:18;;;;;;;;;;;;;;;3.64;93.75;100382.53;4980736;27;20136;-61
2022/10/23 00:23:56;;;;;;;5.72;3.72;;;;;;;3.64;93.11;100382.53;4969882;27;19953;-62
2022/10/23 00:26:37;;;;;;;7.45;3.17;;;;;;;3.72;94.75;100378.34;4990649;27;20049;-62
2022/10/23 00:29:24;;;;;;;6.32;3.03;;;;;;;3.85;93.97;100377.66;4970397;27;20312;-62
2022/10/23 00:32:13;;;;;;;10.15;3.60;;;;;;;3.88;92.30;100380.28;4973252;27;21018;-61
2022/10/23 00:34:50;;;;;;;;;;;;;;;3.98;92.62;100367.47;4936754;27;20143;-60
2022/10/23 00:37:44;;;;;;;5.75;3.42;;;;;;;4.14;93.29;100369.38;4956978;27;19923;-62
2022/10/23 00:40:24;;;;;;;10.63;4.13;;;;;;;4.30;92.97;100367.84;4958302;27;20051;-60
2022/10/23 00:43:22;;;;;;;8.73;3.47;;;;;;;4.34;90.57;100372.19;4923117;28;20121;-61
2022/10/23 00:46:03;;;;;;;6.10;3.40;;;;;;;4.36;90.85;100369.63;4988616;27;20072;-63
2022/10/23 00:48:59;;;;;;;7.57;3.47;;;;;;;4.46;91.96;100366.28;4945428;27;20058;-61
2022/10/23 00:51:52;;;;;;;9.18;3.85;;;;;;;4.48;91.05;100365.44;4925807;27;20051;-61
2022/10/23 00:55:03;;;;;;;9.65;3.22;;;;;;;4.29;91.74;100343.69;4945004;27;20051;-62
2022/10/23 00:57:43;;;;;;;6.88;3.72;;;;;;;4.28;91.34;100360.06;4971950;28;20051;-59
2022/10/23 01:00:46;;;;;;;7.55;4.18;;;;;;;4.44;93.26;100367.97;4953616;27;20102;-59
2022/10/23 01:06:35;;;;;;;6.05;3.13;;;;;;;4.52;87.28;100368.94;4927293;27;20039;-61
2022/10/23 01:09:42;;;;;;;5.97;3.17;;;;;;;4.74;84.25;100359.63;4974041;27;20040;-62
2022/10/23 01:15:33;;;;;;;12.70;3.35;;;;;;;5.04;84.24;100356.44;4953359;27;20051;-61
2022/10/23 01:18:29;;;;;;;8.35;3.70;;;;;;;4.92;85.72;100361.53;4966344;27;20090;-61
2022/10/23 01:24:41;;;;;;;10.82;4.22;;;;;;;4.45;86.76;100338.69;4941664;28;20555;-61
2022/10/23 01:27:30;;;;;;;7.50;3.63;;;;;;;4.23;86.52;100353.97;4969739;27;20047;-60
2022/10/23 01:33:13;;;;;;;5.55;2.97;;;;;;;4.15;85.82;100349.56;4960597;27;20053;-60
2022/10/23 01:35:58;;;;;;;8.32;2.92;;;;;;;3.98;85.01;100324.38;4941904;28;20051;-61
2022/10/23 01:38:44;;;;;;;;;;;;;;;4.19;83.72;100357.34;4956969;27;20039;-60
2022/10/23 01:41:40;;;;;;;7.93;2.83;;;;;;;4.13;83.69;100346.97;4969993;27;19930;-64
2022/10/23 01:44:46;;;;;;;5.70;2.80;;;;;;;3.58;80.71;100268.78;4884473;28;20190;-64
2022/10/23 01:47:39;;;;;;;4.75;2.80;;;;;;;4.22;79.79;100357.41;4947245;27;20529;-64
2022/10/23 01:50:23;;;;;;;5.05;2.58;;;;;;;4.46;76.73;100345.56;4948178;28;20052;-64
2022/10/23 01:53:18;;;;;;;6.90;2.85;;;;;;;5.03;77.20;100354.69;4996526;27;20327;-63
2022/10/23 01:56:13;;;;;;;3.65;2.50;;;;;;;5.29;75.43;100341.06;4965633;28;20057;-64
2022/10/23 01:58:58;;;;;;;2.88;2.20;;;;;;;5.46;73.49;100349.78;4963783;27;20051;-63
2022/10/23 02:01:54;;;;;;;3.15;2.22;;;;;;;5.13;69.28;100356.50;4995854;27;20058;-63
2022/10/23 02:04:55;;;;;;;3.05;2.65;;;;;;;5.21;71.97;100353.97;4940796;28;20067;-66
2022/10/23 02:07:33;;;;;;;5.03;2.50;;;;;;;5.62;72.19;100346.44;4912192;28;20266;-65
2022/10/23 02:10:18;;;;;;;4.32;2.40;;;;;;;5.58;66.50;100343.81;4940689;28;20055;-63
2022/10/23 02:13:22;;;;;;;4.05;2.30;;;;;;;5.36;63.83;100353.19;4958221;28;20047;-64
2022/10/23 02:16:23;;;;;;;3.67;2.20;;;;;;;5.14;66.91;100337.53;4940167;27;20050;-65
2022/10/23 02:19:28;;;;;;;5.45;2.25;;;;;;;5.00;68.76;100349.50;4974367;28;20043;-64
2022/10/23 02:22:26;;;;;;;3.35;2.30;;;;;;;4.88;68.74;100349.41;4857800;28;20043;-64
2022/10/23 02:25:37;;;;;;;2.78;2.30;;;;;;;4.88;67.97;100344.22;4952935;28;20071;-64
2022/10/23 02:28:57;;;;;;;8.48;2.60;;;;;;;5.18;70.28;100344.44;4991547;27;20339;-64
2022/10/23 02:32:25;;;;;;;5.28;2.60;;;;;;;5.51;70.64;100342.91;4962134;27;20053;-63
2022/10/23 02:35:37;;;;;;;7.32;3.05;;;;;;;5.47;71.76;100351.56;4976926;27;20108;-63
2022/10/23 02:38:54;;;;;;;5.45;3.05;;;;;;;5.25;72.55;100349.69;5008433;27;20465;-63
2022/10/23 02:41:47;;;;;;;4.47;2.67;;;;;;;4.99;71.80;100347.75;4933657;27;20051;-65
2022/10/23 02:47:48;;;;;;;4.30;2.42;;;;;;;4.63;73.54;100359.53;4929439;28;20039;-63
2022/10/23 02:50:43;;;;;;;6.97;3.22;;;;;;;4.49;74.15;100324.91;4914726;28;20052;-63
2022/10/23 02:53:44;;;;;;;5.28;2.53;;;;;;;5.00;73.43;100339.16;4896946;28;20108;-64
2022/10/23 02:56:24;;;;;;;5.70;2.90;;;;;;;5.34;73.71;100334.19;4919340;28;20044;-63
2022/10/23 02:59:16;;;;;;;3.53;2.38;;;;;;;5.53;73.11;100336.03;4901179;28;20163;-65
2022/10/23 03:02:03;;;;;;;6.05;2.10;;;;;;;5.19;70.52;100334.94;4923266;28;20050;-66
2022/10/23 03:04:47;;;;;;;4.97;2.67;;;;;;;4.93;73.56;100337.34;4888006;28;20317;-65
2022/10/23 03:07:43;;;;;;;2.55;2.30;;;;;;;4.82;75.28;100341.56;4904114;28;20060;-65
2022/10/23 03:10:30;;;;;;;5.68;2.70;;;;;;;4.74;75.33;100346.69;4923365;28;20056;-63
2022/10/23 03:13:13;;;;;;;4.05;2.53;;;;;;;4.65;75.19;100347.50;4895519;28;20047;-63
2022/10/23 03:15:57;;;;;;;4.78;2.60;;;;;;;4.63;76.19;100338.84;4932287;28;20147;-63
2022/10/23 03:18:43;;;;;;;6.20;3.42;;;;;;;4.62;76.45;100342.28;4912084;27;20075;-64
2022/10/23 03:21:28;;;;;;;4.65;2.70;;;;;;;4.67;76.99;100332.84;4961989;27;20052;-63
2022/10/23 03:24:06;;;;;;;4.25;2.10;;;;;;;4.67;73.38;100340.59;4913512;28;20059;-63
2022/10/23 03:26:50;;;;;;;8.13;3.30;;;;;;;4.76;75.18;100335.50;4991123;27;20112;-63
2022/10/23 03:29:44;;;;;;;3.50;2.50;;;;;;;4.79;73.85;100336.38;4977604;27;20059;-64
2022/10/23 03:32:25;;;;;;;6.38;2.85;;;;;;;4.84;73.23;100326.91;4938071;27;20106;-65
2022/10/23 03:35:11;;;;;;;5.70;3.25;;;;;;;5.04;73.54;100325.38;4946770;27;20105;-65
2022/10/23 03:37:51;;;;;;;5.88;2.78;;;;;;;5.15;71.68;100334.06;4994300;27;20062;-66
2022/10/23 03:40:33;;;;;;;5.25;2.58;;;;;;;5.25;71.10;100334.13;4983277;27;20054;-64
2022/10/23 03:43:09;;;;;;;5.65;2.53;;;;;;;5.21;69.20;100328.06;4972204;27;20075;-64
2022/10/23 03:45:50;;;;;;;5.38;2.90;;;;;;;5.30;70.86;100330.72;4963713;27;20051;-65
2022/10/23 03:48:38;;;;;;;4.53;2.80;;;;;;;5.22;69.80;100324.63;4979920;27;20057;-64
2022/10/23 03:51:17;;;;;;;8.55;2.40;;;;;;;4.95;70.05;100304.59;4895168;28;20066;-65
2022/10/23 03:54:32;;;;;;;4.78;2.60;;;;;;;5.01;69.74;100327.91;4932636;27;20035;-63
2022/10/23 03:57:29;;;;;;;3.20;2.25;;;;;;;4.97;68.90;100333.94;4964504;27;20081;-62
2022/10/23 04:00:23;;;;;;;6.47;2.78;;;;;;;4.81;69.38;100326.91;4910963;28;20109;-63
2022/10/23 04:03:03;;;;;;;5.93;2.70;;;;;;;4.60;67.50;100318.09;4991763;27;20050;-64
2022/10/23 04:05:46;;;;;;;5.25;2.47;;;;;;;4.60;68.94;100328.47;4986983;27;20153;-64
2022/10/23 04:08:26;;;;;;;5.95;2.58;;;;;;;4.62;69.12;100337.13;4927139;28;20035;-64
2022/10/23 04:11:09;;;;;;;4.10;2.47;;;;;;;4.63;69.13;100328.47;4920613;28;20269;-66
2022/10/23 04:13:48;;;;;;;7.13;2.70;;;;;;;4.64;68.32;100314.72;4960577;27;20075;-64
2022/10/23 04:16:32;;;;;;;7.00;2.42;;;;;;;4.66;67.33;100327.63;4928576;28;20051;-65
2022/10/23 04:19:16;;;;;;;5.45;2.53;;;;;;;4.58;66.24;100325.00;4983572;27;20040;-64
2022/10/23 04:22:14;;;;;;;4.80;2.58;;;;;;;4.66;67.18;100323.31;4957130;27;20102;-64
2022/10/23 04:25:08;;;;;;;4.47;2.22;;;;;;;4.84;65.69;100319.16;4954874;27;20408;-66
2022/10/23 04:28:14;;;;;;;6.32;2.97;;;;;;;5.08;66.71;100321.06;4981177;27;20118;-65
2022/10/23 04:30:57;;;;;;;3.13;2.03;;;;;;;5.00;63.99;100320.16;4974157;27;20039;-64
2022/10/23 04:33:37;;;;;;;5.55;2.40;;;;;;;4.82;66.10;100323.44;4983809;27;20055;-65
2022/10/23 04:36:23;;;;;;;5.95;2.88;;;;;;;4.61;67.20;100319.84;4889492;28;20063;-66
2022/10/23 04:42:20;;;;;;;6.32;2.70;;;;;;;4.59;68.18;100324.13;4968615;27;20043;-64
2022/10/23 04:45:15;;;;;;;4.35;3.00;;;;;;;4.58;67.96;100322.41;4997755;27;20043;-66
2022/10/23 04:48:10;;;;;;;6.15;3.00;;;;;;;4.37;67.03;100309.25;4979218;27;20047;-66
2022/10/23 04:50:47;;;;;;;5.25;2.70;;;;;;;4.02;68.04;100240.84;4980551;27;20049;-66
2022/10/23 04:53:27;;;;;;;7.82;3.13;;;;;;;4.72;67.23;100325.13;4948289;27;20055;-64
2022/10/23 04:56:25;;;;;;;10.18;2.63;;;;;;;4.78;66.62;100327.75;4970780;27;20380;-64
2022/10/23 04:59:16;;;;;;;4.95;2.53;;;;;;;4.81;67.54;100327.75;4950381;28;20115;-63
2022/10/23 05:02:07;;;;;;;5.00;3.00;;;;;;;4.84;66.22;100327.81;4969172;27;20039;-63
2022/10/23 05:04:53;;;;;;;6.05;2.53;;;;;;;4.79;66.88;100333.78;4925842;27;20078;-65
2022/10/23 05:07:47;;;;;;;2.97;2.63;;;;;;;4.85;66.64;100331.25;4987482;27;20096;-64
2022/10/23 05:10:28;;;;;;;4.28;2.55;;;;;;;4.74;66.43;100334.63;4968547;27;20049;-64
2022/10/23 05:13:30;;;;;;;5.47;2.60;;;;;;;4.71;66.92;100337.16;4967017;27;20115;-65
2022/10/23 05:16:41;;;;;;;3.47;2.35;;;;;;;4.75;66.55;100333.75;4975255;27;20051;-65
2022/10/23 05:19:48;;;;;;;8.00;2.95;;;;;;;4.67;67.44;100344.94;4952938;28;20052;-65
2022/10/23 05:22:46;;;;;;;6.50;2.92;;;;;;;4.36;68.57;100292.00;4969241;27;20058;-65
2022/10/23 05:25:39;;;;;;;;;;;;;;;4.70;69.43;100350.13;4947024;28;20047;-64
2022/10/23 05:28:24;;;;;;;4.80;2.50;;;;;;;4.68;69.45;100347.50;4867106;28;19930;-65
2022/10/23 05:31:25;;;;;;;6.85;4.93;;;;;;;4.67;70.37;100350.97;4927083;28;20124;-66
2022/10/23 05:34:10;;;;;;;4.45;2.80;;;;;;;4.44;69.45;100347.28;4919152;28;20534;-65
2022/10/23 05:37:06;;;;;;;6.15;2.70;;;;;;;4.42;69.83;100364.50;4914545;28;20095;-65
2022/10/23 05:39:44;;;;;;;7.28;3.20;;;;;;;4.41;70.39;100362.78;4911948;28;20067;-65
2022/10/23 05:42:23;;;;;;;4.65;2.78;;;;;;;4.46;70.31;100368.84;4919760;28;20101;-64
2022/10/23 05:45:10;;;;;;;6.40;3.67;;;;;;;4.40;69.67;100381.75;4886881;28;20066;-64
2022/10/23 05:48:05;;;;;;;2.95;2.20;;;;;;;4.31;68.79;100380.78;4929615;28;20358;-66
2022/10/23 05:51:08;;;;;;;4.68;2.70;;;;;;;4.17;67.59;100374.59;4912935;28;20068;-65
2022/10/23 05:53:46;;;;;;;3.47;2.50;;;;;;;3.97;68.34;100329.53;4925586;28;20170;-65
2022/10/23 05:56:32;;;;;;;4.13;2.15;;;;;;;4.25;68.49;100362.63;4880517;28;20056;-65
2022/10/23 05:59:26;;;;;;;7.25;2.95;;;;;;;4.28;68.64;100378.16;4960083;27;20045;-64
2022/10/23 06:02:25;;;;;;;5.95;2.80;;;;;;;4.31;68.89;100373.00;4957571;27;20072;-64
2022/10/23 06:05:27;;;;;;;4.18;2.17;;;;;;;4.27;67.03;100381.59;4984632;27;20055;-63
2022/10/23 06:08:16;;;;;;;6.65;2.92;;;;;;;4.24;67.35;100375.53;4939276;27;20051;-64
2022/10/23 06:11:03;;;;;;;4.28;2.67;;;;;;;4.19;67.54;100377.19;5004960;27;20107;-64
2022/10/23 06:13:41;;;;;;;8.82;3.35;;;;;;;4.24;67.80;100391.94;4982572;27;20043;-63
2022/10/23 06:16:41;;;;;;;5.57;2.67;;;;;;;4.30;68.03;100386.81;4959403;28;20054;-64
2022/10/23 06:19:34;;;;;;;5.88;2.38;;;;;;;4.27;68.15;100386.78;4963191;27;20092;-63
2022/10/23 06:22:21;;;;;;;5.63;2.35;;;;;;;4.20;68.86;100374.63;4923134;27;20047;-63
2022/10/23 06:25:04;;;;;;;4.10;2.50;;;;;;;4.18;68.83;100376.31;4972681;27;20050;-64
2022/10/23 06:27:39;;;;;;;6.18;2.72;;;;;;;4.22;68.38;100388.44;4986156;27;20035;-63
2022/10/23 06:33:29;;;;;;;3.10;2.20;;;;;;;4.21;68.53;100397.03;4945978;28;20051;-63
2022/10/23 06:36:33;;;;;;;3.05;2.20;;;;;;;4.15;67.62;100391.81;4960146;27;20083;-64
2022/10/23 06:39:47;;;;;;;6.55;3.05;;;;;;;4.07;67.71;100403.78;4959259;27;20043;-64
2022/10/23 06:42:33;;;;;;;3.13;2.30;;;;;;;4.00;67.08;100401.97;4976385;27;20047;-62
2022/10/23 06:45:24;;;;;;;7.32;2.40;;;;;;;3.96;67.12;100405.34;4887176;28;20036;-64
2022/10/23 06:48:04;;;;;;;7.72;2.75;;;;;;;3.82;67.59;100398.31;4944406;27;20057;-64
2022/10/23 06:50:44;;;;;;;3.60;2.30;;;;;;;3.61;63.70;100387.66;4971837;27;20323;-64
2022/10/23 06:53:23;;;;;;;;;;;;;;;3.59;63.86;100404.84;4978037;27;20044;-64
2022/10/23 06:56:11;;;;;;;3.47;2.05;;;;;;;3.47;64.21;100408.16;4995117;27;20178;-65
2022/10/23 06:59:00;;;;;;;3.13;2.00;;;;;;;3.41;64.14;100416.66;4948775;27;20265;-66
2022/10/23 07:01:40;;;;;;;3.97;2.30;;;;;;;3.37;64.02;100412.31;4941934;27;20324;-64
2022/10/23 07:04:15;;;;;;;4.30;2.30;;;;;;;3.36;63.98;100426.06;4969106;27;20091;-64
2022/10/23 07:06:53;;;;;;;4.05;2.28;;;;;;;3.38;64.67;100426.94;4986886;27;20432;-64
2022/10/23 07:09:38;;;;;;;3.70;2.10;;;;;;;3.35;64.98;100429.50;4960834;27;20057;-63
2022/10/23 07:12:20;;;;;;;5.95;2.30;;;;;;;3.31;65.87;100430.28;4958716;27;20067;-63
2022/10/23 07:14:56;;;;;;;4.20;2.20;;;;;;;3.28;65.15;100435.41;4929499;28;20235;-63
2022/10/23 07:17:38;;;;;;;4.78;2.45;;;;;;;3.26;65.32;100431.91;4959795;27;20049;-63
2022/10/23 07:23:06;;;;;;;8.27;2.88;;;;;;;3.15;67.16;100434.34;4914879;27;20038;-63
2022/10/23 07:26:07;;;;;;;3.20;2.50;;;;;;;3.08;68.81;100434.22;4963394;27;20052;-63
2022/10/23 07:28:54;;;;;;;5.05;2.30;;;;;;;3.00;68.50;100445.28;4905204;28;20351;-63
2022/10/23 07:32:09;;;;;;;4.35;2.65;;;;;;;2.90;69.94;100443.38;4949487;27;20091;-63
2022/10/23 07:35:20;;;;;;;3.30;2.28;;;;;;;2.78;69.91;100444.03;4967642;27;20035;-63
2022/10/23 07:38:36;;;;;;;12.40;5.38;;;;;;;2.62;70.66;100441.13;4950086;28;20148;-65
2022/10/23 07:41:50;;;;;;;6.10;3.80;;;;;;;2.26;73.12;100442.16;4925376;28;20101;-65
2022/10/23 07:45:10;;;;;;;10.05;4.40;;;;;;;1.98;75.80;100443.31;4928023;27;20759;-64
2022/10/23 07:48:19;;;;;;;8.15;4.35;;;;;;;1.82;77.94;100442.09;4972124;27;20043;-64
2022/10/23 07:58:52;;;;;;;12.73;5.03;;;;;;;1.28;81.13;100461.47;4971765;27;20061;-66
2022/10/23 08:02:06;;;;;;;21.10;10.25;;;;;;;1.15;82.00;100465.44;4977439;27;20107;-65
2022/10/23 08:05:21;;;;;;;12.70;7.07;;;;;;;1.09;82.58;100470.44;4984004;27;20046;-66
2022/10/23 08:08:47;;;;;;;31.25;16.33;;;;;;;1.03;83.21;100465.13;4965263;28;20039;-66
2022/10/23 08:12:09;;;;;;;22.58;10.50;;;;;;;0.99;83.70;100478.75;4977373;27;20058;-64
2022/10/23 08:15:32;;;;;;;20.42;8.82;;;;;;;1.01;84.30;100487.38;4967688;27;20413;-64
2022/10/23 08:22:11;;;;;;;12.45;7.25;;;;;;;0.96;85.58;100488.97;4903086;28;20061;-66
2022/10/23 08:25:28;;;;;;;8.75;5.55;;;;;;;0.91;86.42;100482.81;4873838;28;20054;-65
2022/10/23 08:32:13;;;;;;;6.05;4.30;;;;;;;0.90;87.50;100493.94;4903169;28;20042;-63
2022/10/23 08:35:26;;;;;;;6.35;4.18;;;;;;;0.83;87.78;100488.63;4900873;28;20055;-64
2022/10/23 08:38:44;;;;;;;6.53;4.32;;;;;;;0.75;87.79;100497.88;4881136;28;20060;-64
2022/10/23 08:41:53;;;;;;;6.22;3.83;;;;;;;0.66;88.28;100500.16;4880662;28;20053;-65
2022/10/23 08:45:09;;;;;;;5.68;3.42;;;;;;;0.57;88.62;100507.63;4891897;28;20096;-66
2022/10/23 08:48:34;;;;;;;7.28;4.32;;;;;;;0.50;88.90;100503.13;4977567;27;20082;-67
2022/10/23 08:52:04;;;;;;;4.15;2.80;;;;;;;0.46;88.89;100506.47;4955295;27;20053;-65
2022/10/23 08:55:18;;;;;;;10.75;3.53;;;;;;;0.47;89.06;100508.19;4967547;27;20047;-66
2022/10/23 08:58:49;;;;;;;7.43;3.70;;;;;;;0.54;89.38;100516.13;4985468;27;20051;-66
2022/10/23 09:02:28;;;;;;;5.18;3.92;;;;;;;0.51;88.65;100525.47;4969732;27;20093;-67
2022/10/23 09:05:46;;;;;;;7.78;3.90;;;;;;;0.48;88.63;100525.38;4976376;27;20282;-65
2022/10/23 09:09:25;;;;;;;6.60;3.45;;;;;;;0.42;88.66;100526.94;4918505;27;20119;-65
2022/10/23 09:12:38;;;;;;;7.82;5.05;;;;;;;0.38;89.13;100519.97;4962334;27;20191;-65
2022/10/23 09:16:06;;;;;;;10.90;4.95;;;;;;;0.43;89.50;100523.53;4978983;27;20110;-65
2022/10/23 09:22:39;;;;;;;9.45;5.60;;;;;;;0.03;89.65;100494.94;4907307;28;20051;-63
2022/10/23 09:29:17;;;;;;;6.32;4.65;;;;;;;0.10;90.64;100543.09;4973672;27;20047;-65
2022/10/23 09:32:33;;;;;;;11.35;7.90;;;;;;;0.09;91.10;100536.22;4962027;27;20051;-64
2022/10/23 09:35:46;;;;;;;20.85;15.32;;;;;;;0.17;91.31;100534.75;4968255;27;20058;-63
2022/10/23 09:39:03;;;;;;;14.43;10.57;;;;;;;0.01;91.25;100512.00;4935206;28;20051;-64
2022/10/23 09:41:53;;;;;;;9.70;6.50;;;;;;;0.33;90.84;100552.38;4943940;27;20035;-63
2022/10/23 09:44:56;;;;;;;11.50;9.10;;;;;;;0.30;90.97;100546.25;4937643;27;20091;-61
2022/10/23 09:47:56;;;;;;;7.75;4.45;;;;;;;0.34;90.89;100546.41;4899475;28;20055;-65
2022/10/23 09:50:43;;;;;;;9.73;5.72;;;;;;;0.35;90.51;100550.72;4967360;27;20088;-65
2022/10/23 09:53:43;;;;;;;7.90;5.80;;;;;;;0.42;91.39;100557.81;4971221;27;20057;-64
2022/10/23 10:00:21;;;;;;;35.92;14.65;;;;;;;0.76;91.90;100565.59;4935972;28;20117;-64
2022/10/23 10:03:06;;;;;;;25.98;11.35;;;;;;;0.76;91.44;100558.75;4971651;27;20063;-64
2022/10/23 10:06:00;;;;;;;39.70;16.05;;;;;;;0.83;90.63;100570.09;5006182;27;20049;-64
2022/10/23 10:09:19;;;;;;;20.30;9.40;;;;;;;0.75;89.85;100561.25;4976714;28;20060;-61
2022/10/23 10:12:28;;;;;;;26.25;8.85;;;;;;;0.68;89.79;100564.53;4955732;28;20044;-64
2022/10/23 10:15:40;;;;;;;14.30;8.05;;;;;;;0.57;89.68;100572.78;4950114;27;20077;-64
2022/10/23 10:18:23;;;;;;;14.60;6.40;;;;;;;0.39;89.46;100552.53;4916435;27;20057;-62
2022/10/23 10:21:22;;;;;;;15.13;6.30;;;;;;;0.35;89.30;100555.88;4915847;28;20058;-64
2022/10/23 10:24:19;;;;;;;11.43;5.55;;;;;;;0.33;89.73;100567.81;4941260;28;20072;-62
2022/10/23 10:27:13;;;;;;;;;;;;;;;0.27;89.33;100565.03;4906407;28;20116;-64
2022/10/23 10:30:11;;;;;;;11.65;4.57;;;;;;;0.17;89.19;100560.44;4972064;27;20924;-64
2022/10/23 10:33:16;;;;;;;8.13;4.90;;;;;;;0.13;89.26;100564.63;4958354;28;20066;-65
2022/10/23 10:36:06;;;;;;;7.22;5.00;;;;;;;-0.19;89.30;100509.69;4965121;27;20035;-65
2022/10/23 10:38:54;;;;;;;15.52;5.38;;;;;;;-0.04;88.85;100553.81;4978098;27;20043;-66
2022/10/23 10:41:46;;;;;;;20.30;10.90;;;;;;;0.01;89.13;100568.53;4926185;28;20144;-63
2022/10/23 10:44:39;;;;;;;24.58;15.15;;;;;;;-0.06;89.18;100568.31;4913563;28;20342;-65
2022/10/23 10:47:37;;;;;;;17.25;9.93;;;;;;;-0.30;89.89;100526.44;4936485;28;20043;-66
2022/10/23 10:50:30;;;;;;;21.63;9.23;;;;;;;-0.35;89.63;100530.56;4907249;28;20075;-65
2022/10/23 10:53:21;;;;;;;16.40;9.05;;;;;;;-0.81;89.17;100477.75;4931384;28;20140;-66
2022/10/23 10:56:07;;;;;;;9.45;7.30;;;;;;;-0.37;89.49;100560.47;4887117;27;20089;-65
2022/10/23 10:58:58;;;;;;;13.77;9.10;;;;;;;-0.66;89.75;100527.00;4887592;28;21157;-66
2022/10/23 11:01:48;;;;;;;11.57;7.35;;;;;;;-0.48;90.15;100568.66;4886182;28;20636;-65
2022/10/23 11:04:41;;;;;;;5.95;4.68;;;;;;;-0.53;90.67;100554.81;4917493;28;20055;-66
2022/10/23 11:07:44;;;;;;;10.15;5.32;;;;;;;-0.54;90.67;100568.47;4890010;28;21760;-65
2022/10/23 11:10:29;;;;;;;12.45;7.65;;;;;;;-0.57;91.00;100565.81;4927711;28;20056;-65
2022/10/23 11:13:31;;;;;;;15.32;10.18;;;;;;;-0.76;91.44;100522.41;4952004;28;20047;-66
2022/10/23 11:16:18;;;;;;;12.10;9.05;;;;;;;-0.65;91.25;100554.41;4942693;28;20063;-66
2022/10/23 11:19:07;;;;;;;14.18;8.20;;;;;;;-0.61;91.20;100575.94;4904806;28;20053;-66
2022/10/23 11:21:51;;;;;;;11.20;7.38;;;;;;;-0.66;90.86;100575.78;4951710;28;20048;-67
2022/10/23 11:25:31;;;;;;;;;;;;;;;;;;;;;
2022/10/23 11:29:07;;;;;;;11.68;5.95;;;;;;;-0.83;91.20;100579.44;4937495;28;20211;-68
2022/10/23 11:32:03;;;;;;;12.13;6.30;;;;;;;-0.90;91.10;100574.13;4903674;28;20055;-69
2022/10/23 11:39:29;;;;;;;;;;;;;;;;;;;;;
2022/10/23 11:42:48;;;;;;;7.88;4.45;;;;;;;-1.05;92.10;100578.69;4883509;28;20043;-69
2022/10/23 11:45:51;;;;;;;5.78;4.68;;;;;;;-1.04;92.05;100580.44;4864451;28;20053;-68
2022/10/23 11:52:28;;;;;;;16.42;8.57;;;;;;;-1.15;92.48;100586.88;4865439;28;20047;-68
2022/10/23 11:58:30;;;;;;;9.35;7.10;;;;;;;-1.26;92.79;100577.94;4844083;28;20099;-68
2022/10/23 12:04:49;;;;;;;10.55;7.60;;;;;;;-1.25;92.62;100590.78;4829416;28;20043;-68
2022/10/23 12:23:32;;;;;;;11.38;4.90;;;;;;;-1.42;92.99;100597.88;4970525;27;431315;-69
2022/10/23 12:26:36;;;;;;;5.30;3.60;;;;;;;-1.56;92.84;100593.91;4969926;27;20047;-68
2022/10/23 12:29:22;;;;;;;10.65;5.53;;;;;;;-1.65;93.09;100588.44;4956941;27;20479;-70
2022/10/23 12:32:18;;;;;;;10.73;4.65;;;;;;;-1.61;93.28;100605.69;4982214;27;20106;-69
2022/10/23 12:38:39;;;;;;;7.40;4.78;;;;;;;-1.80;93.87;100610.13;4964654;27;20047;-69
2022/10/23 12:41:30;;;;;;;6.78;3.80;;;;;;;-2.39;93.93;100511.34;4947478;27;20053;-69
2022/10/23 12:44:17;;;;;;;7.55;4.75;;;;;;;-1.88;94.25;100606.34;4956846;27;20511;-67
2022/10/23 12:47:02;;;;;;;10.32;4.13;;;;;;;-1.91;94.42;100603.69;4976685;27;20152;-67
2022/10/23 12:49:51;;;;;;;6.38;3.78;;;;;;;-1.95;94.88;100606.94;4972329;27;20059;-67
2022/10/23 12:52:38;;;;;;;13.10;6.38;;;;;;;-2.30;94.92;100555.19;4988937;27;20061;-67
2022/10/23 12:55:36;;;;;;;7.57;5.50;;;;;;;-2.07;94.88;100601.31;5001139;27;20097;-66
2022/10/23 12:58:26;;;;;;;9.38;4.75;;;;;;;-2.06;95.50;100610.75;4992074;27;20074;-67
2022/10/23 13:01:09;;;;;;;10.00;4.78;;;;;;;-2.20;95.63;100582.94;4947789;28;20349;-67
2022/10/23 13:04:11;;;;;;;9.03;5.00;;;;;;;-1.99;95.75;100602.53;4969476;27;20050;-67
2022/10/23 13:07:14;;;;;;;9.00;5.40;;;;;;;-1.95;95.62;100604.38;4943170;28;20372;-65
2022/10/23 13:13:01;;;;;;;11.50;5.75;;;;;;;-2.11;95.39;100572.16;4951906;27;20047;-66
2022/10/23 13:15:59;;;;;;;11.13;5.45;;;;;;;-1.87;95.33;100623.50;4925318;27;20054;-65
2022/10/23 13:18:43;;;;;;;8.17;5.17;;;;;;;-1.85;95.20;100615.84;4976796;27;20054;-65
2022/10/23 13:21:28;;;;;;;8.40;5.07;;;;;;;-1.88;94.85;100606.34;4986949;27;20324;-65
2022/10/23 13:24:25;;;;;;;5.45;3.80;;;;;;;-1.81;94.75;100608.34;4985702;27;20046;-66
2022/10/23 13:27:02;;;;;;;8.32;4.22;;;;;;;-2.17;94.61;100562.56;4957877;27;20445;-66
2022/10/23 13:29:43;;;;;;;5.85;3.65;;;;;;;-1.85;94.36;100613.28;4909564;28;20079;-65
2022/10/23 13:32:28;;;;;;;3.95;2.95;;;;;;;-1.85;94.36;100620.97;4975278;27;20047;-65
2022/10/23 13:35:29;;;;;;;4.28;3.17;;;;;;;-1.88;93.73;100616.59;5006415;27;20046;-66
2022/10/23 13:38:15;;;;;;;4.78;3.30;;;;;;;-1.90;93.76;100618.22;4956190;27;20202;-65
2022/10/23 13:41:04;;;;;;;4.15;3.25;;;;;;;-1.88;93.76;100621.72;4924583;27;24286;-65
2022/10/23 13:43:51;;;;;;;7.60;3.70;;;;;;;-1.89;93.51;100620.00;4950304;27;20267;-64
2022/10/23 13:46:38;;;;;;;6.15;4.07;;;;;;;-1.86;92.96;100620.09;4951191;27;20027;-65
2022/10/23 13:49:19;;;;;;;6.95;3.08;;;;;;;-1.87;92.41;100608.13;4951961;27;20046;-66
2022/10/23 13:52:08;;;;;;;10.32;4.22;;;;;;;-1.96;92.50;100603.50;4987819;27;20051;-66
2022/10/23 13:55:13;;;;;;;49.88;31.63;;;;;;;-2.04;92.61;100616.81;4980458;27;20043;-66
2022/10/23 13:57:51;;;;;;;14.57;9.93;;;;;;;-2.10;92.22;100619.13;4915597;28;20421;-66
2022/10/23 14:00:27;;;;;;;;;;;;;;;-2.17;92.45;100608.66;4937929;27;20114;-66
2022/10/23 14:03:14;;;;;;;7.93;4.72;;;;;;;-2.23;92.80;100616.06;4986882;27;19917;-65
2022/10/23 14:06:05;;;;;;;8.23;3.70;;;;;;;-2.19;93.13;100615.38;4982562;27;20050;-65
2022/10/23 14:08:42;;;;;;;6.10;3.53;;;;;;;-2.19;92.74;100610.28;4958392;27;20044;-66
2022/10/23 14:11:22;;;;;;;5.68;3.75;;;;;;;-2.23;92.84;100612.63;4949754;28;20043;-64
2022/10/23 14:14:03;;;;;;;6.00;3.45;;;;;;;-2.14;92.50;100614.72;4963030;27;20043;-65
2022/10/23 14:16:37;;;;;;;4.63;3.40;;;;;;;-2.46;92.29;100568.19;4951122;28;20040;-65
2022/10/23 14:19:35;;;;;;;5.63;3.90;;;;;;;-2.25;92.13;100615.13;4992388;27;20055;-66
2022/10/23 14:22:26;;;;;;;6.75;3.35;;;;;;;-2.26;91.87;100613.38;4956541;27;20048;-65
2022/10/23 14:28:15;;;;;;;5.05;3.15;;;;;;;-2.35;91.60;100595.09;4969552;27;20061;-66
2022/10/23 14:31:15;;;;;;;4.10;3.00;;;;;;;-2.23;91.37;100616.06;4912593;28;21516;-65
2022/10/23 14:34:03;;;;;;;3.00;2.70;;;;;;;-2.15;90.86;100610.38;4938206;27;20064;-66
2022/10/23 14:37:10;;;;;;;3.60;3.00;;;;;;;-2.18;90.44;100606.88;4975228;27;20070;-65
2022/10/23 14:40:09;;;;;;;3.42;2.75;;;;;;;-2.25;90.07;100614.25;4957182;27;20047;-65
2022/10/23 14:42:47;;;;;;;3.88;2.95;;;;;;;-2.37;90.22;100604.41;4983160;27;20043;-66
2022/10/23 14:45:32;;;;;;;4.85;2.70;;;;;;;-2.43;90.27;100610.13;4978871;27;20036;-65
2022/10/23 14:48:06;;;;;;;5.85;3.15;;;;;;;-2.68;90.01;100562.19;4965231;27;20043;-66
2022/10/23 14:51:03;;;;;;;3.42;2.50;;;;;;;-2.41;90.03;100608.50;4934290;27;20849;-65
2022/10/23 14:56:48;;;;;;;6.03;3.20;;;;;;;-2.61;89.97;100610.25;4959179;27;20046;-67
2022/10/23 14:59:34;;;;;;;;;;;;;;;-2.74;90.52;100613.09;4979125;27;20032;-66
2022/10/23 15:02:20;;;;;;;4.40;2.50;;;;;;;-2.74;90.97;100610.53;4968387;27;19939;-66
2022/10/23 15:05:07;;;;;;;4.63;2.55;;;;;;;-2.75;90.63;100605.34;4941905;27;20047;-66
2022/10/23 15:08:07;;;;;;;4.20;2.70;;;;;;;-2.74;90.75;100602.00;4979676;27;20043;-66
2022/10/23 15:10:48;;;;;;;3.88;2.42;;;;;;;-2.78;90.76;100611.22;4931493;28;20044;-66
2022/10/23 15:13:31;;;;;;;3.83;2.97;;;;;;;-2.75;90.51;100611.34;4935439;27;20043;-66